Time;durP1;ratioP1;P1;durP2;ratioP2;P2;SDS_P1;SDS_P2;PMS_P1;PMS_P2;Temp;Humidity;BMP_temperature;BMP_pressure;BME280_temperature;BME280_humidity;BME280_pressure;Samples;Min_cycle;Max_cycle;Signal;HPM_P1;HPM_P2
2023/08/03 00:00:34;;;;;;;4.55;2.20;;;19.40;60.00;;;;;;20492;6834;281139;-70
2023/08/03 00:03:00;;;;;;;5.32;2.15;;;19.60;58.90;;;;;;20513;6834;335811;-70
2023/08/03 00:05:25;;;;;;;8.23;2.20;;;19.90;58.00;;;;;;20726;6834;117057;-71
2023/08/03 00:07:51;;;;;;;5.10;2.75;;;19.80;58.40;;;;;;20470;6854;307703;-71
2023/08/03 00:10:17;;;;;;;5.40;2.07;;;19.90;57.40;;;;;;20728;6839;117100;-71
2023/08/03 00:12:42;;;;;;;5.23;2.10;;;19.80;58.00;;;;;;20702;6839;119341;-71
2023/08/03 00:15:09;;;;;;;5.77;2.13;;;19.60;58.70;;;;;;20673;6854;117262;-71
2023/08/03 00:17:33;;;;;;;7.17;2.10;;;19.40;59.10;;;;;;20492;6839;307660;-70
2023/08/03 00:20:04;;;;;;;5.05;2.62;;;19.70;58.10;;;;;;20508;6839;278932;-71
2023/08/03 00:22:28;;;;;;;6.70;2.70;;;20.30;56.50;;;;;;20410;6845;289794;-70
2023/08/03 00:25:00;;;;;;;5.63;2.43;;;20.30;56.80;;;;;;20484;6834;312407;-70
2023/08/03 00:27:26;;;;;;;7.97;2.10;;;20.50;56.40;;;;;;20714;6834;119811;-71
2023/08/03 00:29:52;;;;;;;7.32;2.25;;;20.30;57.00;;;;;;20707;6834;117511;-70
2023/08/03 00:32:17;;;;;;;6.63;2.23;;;20.00;57.80;;;;;;20745;6835;117066;-69
2023/08/03 00:34:43;;;;;;;6.20;2.30;;;19.70;58.50;;;;;;20711;6835;117150;-71
2023/08/03 00:37:08;;;;;;;5.75;2.37;;;19.50;59.10;;;;;;20511;6839;283892;-71
2023/08/03 00:39:34;;;;;;;6.07;2.50;;;19.70;58.30;;;;;;20498;6839;315279;-71
2023/08/03 00:41:59;;;;;;;5.97;2.25;;;20.10;57.30;;;;;;20684;6854;124137;-69
2023/08/03 00:44:25;;;;;;;5.22;2.42;;;20.00;57.70;;;;;;20514;6839;278034;-71
2023/08/03 00:46:51;;;;;;;4.57;2.30;;;20.20;57.00;;;;;;20692;6854;117530;-70
2023/08/03 00:49:16;;;;;;;4.93;2.20;;;20.10;57.50;;;;;;20733;6839;116833;-70
2023/08/03 00:51:42;;;;;;;5.90;2.70;;;19.90;58.10;;;;;;20518;6839;309549;-71
2023/08/03 00:54:07;;;;;;;6.03;2.30;;;20.00;57.20;;;;;;20717;6839;117196;-70
2023/08/03 00:56:35;;;;;;;5.82;2.80;;;20.10;55.90;;;;;;20440;6854;278099;-71
2023/08/03 00:59:00;;;;;;;7.57;2.60;;;20.10;56.10;;;;;;20490;6839;307559;-69
2023/08/03 01:01:28;;;;;;;8.45;2.90;;;20.60;54.90;;;;;;20514;6835;307036;-70
2023/08/03 01:03:54;;;;;;;7.30;2.73;;;20.60;54.90;;;;;;20513;6838;307623;-69
2023/08/03 01:06:19;;;;;;;6.93;2.40;;;20.70;54.10;;;;;;20753;6834;123377;-71
2023/08/03 01:08:45;;;;;;;6.43;2.57;;;20.50;54.90;;;;;;20713;6839;119645;-70
2023/08/03 01:11:10;;;;;;;6.03;2.53;;;20.20;55.90;;;;;;20470;6854;301955;-70
2023/08/03 01:13:36;;;;;;;6.25;2.65;;;20.20;55.10;;;;;;20518;6839;281653;-71
2023/08/03 01:16:03;;;;;;;8.03;2.40;;;20.40;54.70;;;;;;20724;6839;119277;-70
2023/08/03 01:18:30;;;;;;;5.63;2.40;;;20.20;55.10;;;;;;20665;6854;119898;-71
2023/08/03 01:20:55;;;;;;;5.37;2.47;;;19.90;55.80;;;;;;20724;6839;119365;-70
2023/08/03 01:23:21;;;;;;;6.10;2.27;;;19.70;56.30;;;;;;20530;6834;286417;-72
2023/08/03 01:25:47;;;;;;;5.55;2.08;;;19.90;55.20;;;;;;20747;6834;116990;-70
2023/08/03 01:28:13;;;;;;;6.73;2.20;;;19.90;55.20;;;;;;20722;6839;120203;-71
2023/08/03 01:30:38;;;;;;;6.28;2.05;;;19.70;55.50;;;;;;20673;6854;122867;-70
2023/08/03 01:33:04;;;;;;;4.93;2.27;;;19.60;55.90;;;;;;20724;6839;122771;-68
2023/08/03 01:35:30;;;;;;;8.68;2.00;;;19.40;56.40;;;;;;20730;6839;119717;-70
2023/08/03 01:37:56;;;;;;;4.60;2.03;;;19.30;56.30;;;;;;20723;6839;117162;-71
2023/08/03 01:40:21;;;;;;;4.05;2.12;;;19.30;56.40;;;;;;20532;6834;310496;-71
2023/08/03 01:42:47;;;;;;;6.30;2.00;;;19.60;53.90;;;;;;20728;6839;120318;-69
2023/08/03 01:45:12;;;;;;;4.87;2.03;;;19.70;54.40;;;;;;20723;6839;117199;-70
2023/08/03 01:47:38;;;;;;;5.13;1.77;;;19.60;54.90;;;;;;20729;6839;119681;-71
2023/08/03 01:50:04;;;;;;;6.50;2.25;;;19.40;55.10;;;;;;20677;6854;119844;-68
2023/08/03 01:52:29;;;;;;;6.40;2.03;;;19.30;55.40;;;;;;20464;6839;277982;-70
2023/08/03 01:54:55;;;;;;;5.90;1.87;;;19.50;53.50;;;;;;20722;6839;116820;-68
2023/08/03 01:57:20;;;;;;;5.70;2.30;;;19.60;54.10;;;;;;20509;6839;278109;-69
2023/08/03 01:59:46;;;;;;;6.55;2.40;;;19.80;52.80;;;;;;20451;6854;308093;-71
2023/08/03 02:02:11;;;;;;;5.87;1.90;;;20.10;51.90;;;;;;20713;6839;120462;-71
2023/08/03 02:04:37;;;;;;;3.08;1.85;;;20.10;52.70;;;;;;20659;6854;119838;-70
2023/08/03 02:07:09;;;;;;;4.07;2.05;;;19.90;53.50;;;;;;20515;6839;278507;-70
2023/08/03 02:09:36;;;;;;;3.03;1.60;;;20.00;52.10;;;;;;20616;6854;117661;-71
2023/08/03 02:12:03;;;;;;;4.68;1.65;;;20.00;52.80;;;;;;20518;6839;278796;-69
2023/08/03 02:14:36;;;;;;;6.90;2.25;;;20.10;51.90;;;;;;20492;6839;307781;-71
2023/08/03 02:17:06;;;;;;;4.43;1.60;;;20.40;51.20;;;;;;20663;6833;117029;-71
2023/08/03 02:19:34;;;;;;;3.60;1.60;;;20.20;51.90;;;;;;20694;6834;117404;-69
2023/08/03 02:21:57;;;;;;;2.40;1.30;;;19.90;51.90;;;;;;20759;6834;122254;-71
2023/08/03 02:24:23;;;;;;;3.95;2.20;;;19.70;52.90;;;;;;20502;6839;310369;-70
2023/08/03 02:26:49;;;;;;;3.05;1.42;;;19.90;51.50;;;;;;20703;6839;117242;-71
2023/08/03 02:29:14;;;;;;;4.97;1.65;;;19.90;52.30;;;;;;20667;6854;119779;-69
2023/08/03 02:31:40;;;;;;;5.87;2.00;;;19.80;52.90;;;;;;20714;6839;118183;-71
2023/08/03 02:34:05;;;;;;;3.15;1.90;;;19.60;53.40;;;;;;20493;6839;309665;-69
2023/08/03 02:36:31;;;;;;;4.63;1.50;;;19.80;51.30;;;;;;20678;6839;119789;-70
2023/08/03 02:38:56;;;;;;;3.85;2.00;;;19.90;52.00;;;;;;20511;6837;277894;-71
2023/08/03 02:41:22;;;;;;;9.93;2.03;;;20.10;51.00;;;;;;20728;6839;118632;-71
2023/08/03 02:43:48;;;;;;;4.15;1.42;;;20.00;51.60;;;;;;20729;6837;118582;-70
2023/08/03 02:46:13;;;;;;;4.93;1.98;;;19.90;52.30;;;;;;20520;6839;278551;-71
2023/08/03 02:48:39;;;;;;;3.83;1.70;;;20.10;50.80;;;;;;20658;6854;119930;-69
2023/08/03 02:51:04;;;;;;;4.05;1.73;;;20.00;51.40;;;;;;20514;6839;283850;-71
2023/08/03 02:53:30;;;;;;;6.70;1.90;;;20.20;50.10;;;;;;20520;6839;307609;-71
2023/08/03 02:55:56;;;;;;;5.18;2.08;;;20.70;49.30;;;;;;20515;6839;307285;-71
2023/08/03 02:58:23;;;;;;;4.07;1.90;;;20.70;49.30;;;;;;20501;6839;308039;-73
2023/08/03 03:00:50;;;;;;;3.03;1.70;;;21.00;48.90;;;;;;20513;6839;314843;-70
2023/08/03 03:03:15;;;;;;;4.23;1.83;;;21.00;48.90;;;;;;20523;6839;311656;-70
2023/08/03 03:05:41;;;;;;;6.33;2.50;;;21.10;48.70;;;;;;20461;6854;312428;-70
2023/08/03 03:08:06;;;;;;;6.40;1.53;;;21.10;48.40;;;;;;20724;6839;122039;-69
2023/08/03 03:10:32;;;;;;;5.78;2.20;;;20.90;49.50;;;;;;20495;6839;307116;-69
2023/08/03 03:12:58;;;;;;;3.80;1.67;;;20.60;50.20;;;;;;20729;6837;117774;-69
2023/08/03 03:15:24;;;;;;;6.43;2.10;;;20.60;50.20;;;;;;20727;6839;117474;-71
2023/08/03 03:17:49;;;;;;;5.73;2.33;;;20.30;51.00;;;;;;20468;6854;312416;-70
2023/08/03 03:20:16;;;;;;;4.32;2.20;;;20.60;49.40;;;;;;20510;6839;307986;-70
2023/08/03 03:22:41;;;;;;;6.73;1.87;;;20.60;49.40;;;;;;20706;6839;121823;-70
2023/08/03 03:25:07;;;;;;;6.20;2.20;;;20.50;50.30;;;;;;20531;6835;307508;-71
2023/08/03 03:27:33;;;;;;;3.77;1.63;;;20.50;49.20;;;;;;20680;6853;120182;-70
2023/08/03 03:29:58;;;;;;;4.35;2.00;;;20.40;50.10;;;;;;20523;6839;278464;-69
2023/08/03 03:32:24;;;;;;;4.63;1.90;;;20.40;49.50;;;;;;20504;6839;309280;-71
2023/08/03 03:34:50;;;;;;;4.43;1.90;;;20.50;49.70;;;;;;20680;6854;119592;-71
2023/08/03 03:37:16;;;;;;;6.95;1.90;;;20.50;49.70;;;;;;20515;6839;306742;-71
2023/08/03 03:39:41;;;;;;;6.82;2.05;;;20.50;49.20;;;;;;20519;6839;339172;-70
2023/08/03 03:42:08;;;;;;;3.50;1.87;;;20.50;49.80;;;;;;20687;6854;117921;-70
2023/08/03 03:44:34;;;;;;;4.07;1.60;;;20.50;49.80;;;;;;20710;6839;117311;-75
2023/08/03 03:46:59;;;;;;;4.87;2.00;;;20.20;50.60;;;;;;20521;6839;337932;-72
2023/08/03 03:49:24;;;;;;;5.13;1.97;;;20.20;49.60;;;;;;20477;6854;279006;-71
2023/08/03 03:51:50;;;;;;;5.47;1.83;;;20.40;49.30;;;;;;20527;6839;277965;-70
2023/08/03 03:54:15;;;;;;;5.22;1.40;;;20.60;48.80;;;;;;20687;6854;122461;-71
2023/08/03 03:56:41;;;;;;;7.27;1.40;;;20.40;49.50;;;;;;20711;6839;119633;-73
2023/08/03 03:59:07;;;;;;;2.70;1.52;;;20.10;50.30;;;;;;20726;6839;117689;-73
2023/08/03 04:01:32;;;;;;;3.30;1.40;;;19.80;50.90;;;;;;20523;6839;304207;-70
2023/08/03 04:03:58;;;;;;;3.03;1.12;;;19.80;50.40;;;;;;20664;6839;117106;-69
2023/08/03 04:06:24;;;;;;;3.17;0.97;;;19.80;50.30;;;;;;20699;6839;117597;-70
2023/08/03 04:08:50;;;;;;;2.95;1.30;;;19.60;50.90;;;;;;20514;6839;277834;-69
2023/08/03 04:11:15;;;;;;;4.47;1.20;;;19.70;50.20;;;;;;20681;6854;117310;-69
2023/08/03 04:13:41;;;;;;;2.47;1.40;;;19.80;50.30;;;;;;20516;6839;298043;-69
2023/08/03 04:16:07;;;;;;;3.33;1.37;;;19.80;50.30;;;;;;20726;6839;117590;-70
2023/08/03 04:18:34;;;;;;;3.40;1.02;;;19.70;50.90;;;;;;20713;6839;118238;-70
2023/08/03 04:21:00;;;;;;;3.60;0.60;;;19.50;51.60;;;;;;20731;6839;119939;-70
2023/08/03 04:23:25;;;;;;;3.23;1.10;;;19.20;52.00;;;;;;20480;6854;278864;-69
2023/08/03 04:25:51;;;;;;;3.47;0.70;;;19.40;51.40;;;;;;20741;6839;119516;-70
2023/08/03 04:28:16;;;;;;;1.87;1.07;;;19.40;51.80;;;;;;20731;6839;117913;-73
2023/08/03 04:30:42;;;;;;;3.25;1.77;;;19.20;52.40;;;;;;20515;6835;426061;-70
2023/08/03 04:33:07;;;;;;;3.20;1.10;;;19.40;52.10;;;;;;20739;6839;122490;-71
2023/08/03 04:35:33;;;;;;;3.50;1.47;;;19.30;52.30;;;;;;20482;6854;282699;-71
2023/08/03 04:37:59;;;;;;;3.83;1.45;;;19.50;51.60;;;;;;20746;6839;118201;-70
2023/08/03 04:40:24;;;;;;;2.50;0.90;;;19.40;52.00;;;;;;20721;6838;127342;-70
2023/08/03 04:42:50;;;;;;;2.58;0.90;;;19.20;52.50;;;;;;20530;6839;277763;-71
2023/08/03 04:45:15;;;;;;;1.47;0.80;;;19.30;51.40;;;;;;20729;6839;117584;-71
2023/08/03 04:47:41;;;;;;;1.83;0.90;;;19.30;51.90;;;;;;20512;6839;282105;-72
2023/08/03 04:50:07;;;;;;;1.80;1.00;;;19.40;51.40;;;;;;20729;6839;117394;-71
2023/08/03 04:52:32;;;;;;;3.70;0.83;;;19.40;52.00;;;;;;20725;6834;119586;-72
2023/08/03 04:54:58;;;;;;;2.15;0.90;;;19.20;52.60;;;;;;20539;6834;339593;-73
2023/08/03 04:57:25;;;;;;;2.67;1.00;;;19.60;51.80;;;;;;20550;6834;307614;-71
2023/08/03 04:59:51;;;;;;;1.83;0.80;;;19.60;51.80;;;;;;20734;6839;117103;-71
2023/08/03 05:02:17;;;;;;;1.50;0.60;;;19.50;52.30;;;;;;20707;6854;117109;-72
2023/08/03 05:04:44;;;;;;;2.50;0.73;;;19.00;53.30;;;;;;20719;6839;117072;-70
2023/08/03 05:07:09;;;;;;;2.23;0.90;;;19.00;53.30;;;;;;20502;6839;311162;-70
2023/08/03 05:09:35;;;;;;;2.12;1.02;;;19.20;52.40;;;;;;20510;6839;307769;-72
2023/08/03 05:12:01;;;;;;;2.57;0.90;;;19.50;51.60;;;;;;20686;6854;117933;-71
2023/08/03 05:14:27;;;;;;;1.50;0.82;;;19.50;52.00;;;;;;20497;6839;307691;-71
2023/08/03 05:16:52;;;;;;;2.47;1.02;;;19.60;51.70;;;;;;20474;6854;307432;-70
2023/08/03 05:19:18;;;;;;;3.97;1.10;;;19.80;51.00;;;;;;20740;6839;117232;-70
2023/08/03 05:21:43;;;;;;;1.83;1.10;;;19.70;51.30;;;;;;20472;6839;308507;-72
2023/08/03 05:24:09;;;;;;;1.73;1.00;;;19.80;51.10;;;;;;20728;6839;117644;-71
2023/08/03 05:26:35;;;;;;;3.20;1.10;;;19.70;51.70;;;;;;20652;6839;119352;-71
2023/08/03 05:29:00;;;;;;;3.15;0.90;;;19.40;52.30;;;;;;20495;6835;281322;-70
2023/08/03 05:31:26;;;;;;;3.17;1.20;;;19.50;51.60;;;;;;20497;6835;320942;-71
2023/08/03 05:33:52;;;;;;;2.85;1.25;;;19.80;51.20;;;;;;20708;6835;119190;-71
2023/08/03 05:36:18;;;;;;;4.37;1.23;;;19.80;51.50;;;;;;20729;6835;120002;-71
2023/08/03 05:38:43;;;;;;;6.27;1.33;;;19.60;52.50;;;;;;20710;6839;117197;-72
2023/08/03 05:41:09;;;;;;;2.00;1.20;;;19.40;52.30;;;;;;20542;6835;282287;-71
2023/08/03 05:43:34;;;;;;;2.03;1.20;;;19.50;50.80;;;;;;20535;6839;310370;-71
2023/08/03 05:46:00;;;;;;;2.33;1.20;;;19.90;49.90;;;;;;20474;6854;308551;-71
2023/08/03 05:48:25;;;;;;;3.40;1.53;;;20.20;49.00;;;;;;20714;6839;119888;-71
2023/08/03 05:50:51;;;;;;;1.67;1.00;;;20.10;49.80;;;;;;20722;6838;117598;-72
2023/08/03 05:53:16;;;;;;;4.10;1.20;;;19.80;50.40;;;;;;20679;6854;118466;-71
2023/08/03 05:55:42;;;;;;;2.78;1.27;;;19.60;50.90;;;;;;20521;6839;279736;-71
2023/08/03 05:58:14;;;;;;;3.07;1.37;;;19.80;49.00;;;;;;20695;6854;119751;-70
2023/08/03 06:00:41;;;;;;;2.30;1.10;;;19.70;50.40;;;;;;20712;6839;120238;-70
2023/08/03 06:03:06;;;;;;;1.97;0.90;;;19.70;50.30;;;;;;20736;6839;117765;-70
2023/08/03 06:05:38;;;;;;;2.37;0.80;;;19.60;50.50;;;;;;20672;6854;119414;-73
2023/08/03 06:08:09;;;;;;;3.53;0.93;;;19.50;50.60;;;;;;20719;6839;117069;-70
2023/08/03 06:10:35;;;;;;;4.12;1.10;;;19.40;50.70;;;;;;20474;6839;331561;-70
2023/08/03 06:13:01;;;;;;;3.07;1.20;;;19.70;48.10;;;;;;20750;6834;117225;-70
2023/08/03 06:15:26;;;;;;;2.23;1.00;;;19.90;48.80;;;;;;20741;6834;117019;-70
2023/08/03 06:17:52;;;;;;;2.50;1.37;;;20.10;47.10;;;;;;20534;6834;310864;-70
2023/08/03 06:20:22;;;;;;;4.30;1.10;;;20.10;47.10;;;;;;20694;6839;119810;-71
2023/08/03 06:22:44;;;;;;;3.13;0.80;;;20.30;48.10;;;;;;20660;6854;118378;-71
2023/08/03 06:25:09;;;;;;;3.83;1.30;;;20.20;48.40;;;;;;20518;6839;308676;-71
2023/08/03 06:27:35;;;;;;;3.03;1.30;;;20.50;46.50;;;;;;20523;6839;337531;-70
2023/08/03 06:30:00;;;;;;;1.85;1.20;;;20.90;45.40;;;;;;20535;6835;277522;-70
2023/08/03 06:32:26;;;;;;;3.97;1.27;;;21.30;44.60;;;;;;20519;6835;307095;-71
2023/08/03 06:34:51;;;;;;;4.40;1.50;;;21.60;44.10;;;;;;20738;6835;119442;-71
2023/08/03 06:37:18;;;;;;;0.80;0.70;;;21.30;46.20;;;;;;20679;6854;117271;-71
2023/08/03 06:39:43;;;;;;;2.50;1.45;;;21.30;46.20;;;;;;20514;6839;307499;-69
2023/08/03 06:42:10;;;;;;;2.00;1.00;;;22.20;43.90;;;;;;20519;6839;282891;-69
2023/08/03 06:44:35;;;;;;;3.63;1.37;;;22.20;43.80;;;;;;20710;6839;122181;-70
2023/08/03 06:47:01;;;;;;;5.37;1.00;;;22.60;45.80;;;;;;20746;6835;120322;-69
2023/08/03 06:49:26;;;;;;;5.70;1.30;;;22.70;46.40;;;;;;20514;6839;308331;-70
2023/08/03 06:51:52;;;;;;;2.50;1.10;;;23.20;43.10;;;;;;20722;6839;119050;-69
2023/08/03 06:54:17;;;;;;;3.83;1.20;;;23.50;44.20;;;;;;20743;6835;117173;-70
2023/08/03 06:56:43;;;;;;;3.23;1.00;;;23.40;44.60;;;;;;20713;6839;123500;-70
2023/08/03 06:59:09;;;;;;;2.13;1.13;;;23.30;44.90;;;;;;20725;6839;123009;-69
2023/08/03 07:01:34;;;;;;;2.67;1.52;;;23.30;45.30;;;;;;20520;6838;307056;-70
2023/08/03 07:04:00;;;;;;;2.47;1.30;;;23.60;42.40;;;;;;20533;6839;328602;-69
2023/08/03 07:06:25;;;;;;;1.63;1.00;;;24.10;41.40;;;;;;20706;6839;129161;-71
2023/08/03 07:08:51;;;;;;;4.75;1.33;;;24.20;42.60;;;;;;20524;6839;278064;-70
2023/08/03 07:11:16;;;;;;;6.83;1.27;;;24.50;41.20;;;;;;20520;6839;307980;-72
2023/08/03 07:13:42;;;;;;;2.20;1.30;;;24.80;39.70;;;;;;20531;6839;330556;-72
2023/08/03 07:16:08;;;;;;;4.60;0.97;;;24.70;41.20;;;;;;20742;6839;117129;-71
2023/08/03 07:18:34;;;;;;;2.10;1.10;;;24.70;40.50;;;;;;20500;6839;307062;-71
2023/08/03 07:21:02;;;;;;;1.77;1.20;;;24.70;39.40;;;;;;20540;6834;281413;-69
2023/08/03 07:23:28;;;;;;;1.47;0.97;;;24.70;39.20;;;;;;20729;6839;119360;-71
2023/08/03 07:25:54;;;;;;;4.23;1.00;;;24.50;40.50;;;;;;20464;6854;308441;-71
2023/08/03 07:28:19;;;;;;;2.93;1.20;;;24.30;39.60;;;;;;20726;6839;119808;-72
2023/08/03 07:30:45;;;;;;;4.10;1.50;;;24.00;41.00;;;;;;20503;6839;282486;-70
2023/08/03 07:33:10;;;;;;;4.18;1.30;;;23.90;39.90;;;;;;20521;6839;307537;-71
2023/08/03 07:35:36;;;;;;;2.47;1.15;;;24.00;40.20;;;;;;20522;6839;282505;-71
2023/08/03 07:38:01;;;;;;;2.40;1.10;;;24.20;39.80;;;;;;20718;6839;117039;-71
2023/08/03 07:40:27;;;;;;;1.70;1.00;;;24.10;41.10;;;;;;20419;6854;308138;-71
2023/08/03 07:42:53;;;;;;;5.33;1.17;;;23.90;41.30;;;;;;20723;6839;123090;-71
2023/08/03 07:45:19;;;;;;;3.10;1.00;;;23.90;41.30;;;;;;20635;6854;122986;-71
2023/08/03 07:47:46;;;;;;;1.37;1.13;;;23.50;42.10;;;;;;20646;6839;122554;-72
2023/08/03 07:50:12;;;;;;;2.13;0.90;;;23.10;42.80;;;;;;20618;6854;117198;-69
2023/08/03 07:52:38;;;;;;;2.43;0.73;;;22.90;42.80;;;;;;20650;6839;120291;-71
2023/08/03 07:55:03;;;;;;;4.50;1.20;;;22.60;43.70;;;;;;20412;6854;314075;-70
2023/08/03 07:57:29;;;;;;;2.00;0.90;;;22.70;42.20;;;;;;20461;6839;339115;-71
2023/08/03 07:59:55;;;;;;;3.50;1.15;;;23.20;42.60;;;;;;20420;6854;284009;-70
2023/08/03 08:02:20;;;;;;;2.30;0.87;;;23.10;42.50;;;;;;20713;6839;117412;-72
2023/08/03 08:04:50;;;;;;;1.92;0.82;;;23.10;43.30;;;;;;20488;6839;307308;-72
2023/08/03 08:07:15;;;;;;;1.87;0.90;;;23.10;41.80;;;;;;20722;6839;119812;-71
2023/08/03 08:09:40;;;;;;;1.60;0.57;;;23.00;42.90;;;;;;20738;6835;117096;-70
2023/08/03 08:12:06;;;;;;;2.28;1.12;;;22.70;43.60;;;;;;20514;6839;307738;-71
2023/08/03 08:14:32;;;;;;;2.03;0.73;;;22.80;42.60;;;;;;20664;6853;119883;-69
2023/08/03 08:16:57;;;;;;;0.97;0.67;;;22.80;43.50;;;;;;20725;6839;117283;-71
2023/08/03 08:19:23;;;;;;;2.03;0.85;;;22.60;44.10;;;;;;20532;6839;281011;-71
2023/08/03 08:21:48;;;;;;;4.13;0.70;;;22.70;42.80;;;;;;20761;6839;118676;-71
2023/08/03 08:24:15;;;;;;;2.10;0.88;;;22.70;43.60;;;;;;20489;6854;281917;-71
2023/08/03 08:26:41;;;;;;;4.05;1.37;;;22.90;42.80;;;;;;20496;6839;312504;-71
2023/08/03 08:29:06;;;;;;;2.93;0.93;;;23.20;41.90;;;;;;20730;6839;123152;-71
2023/08/03 08:31:32;;;;;;;3.00;0.97;;;23.30;42.90;;;;;;20721;6839;121099;-70
2023/08/03 08:33:58;;;;;;;2.12;0.62;;;23.10;43.40;;;;;;20743;6834;120073;-71
2023/08/03 08:36:24;;;;;;;5.15;1.05;;;23.00;43.90;;;;;;20505;6834;302129;-71
2023/08/03 08:38:49;;;;;;;1.65;0.70;;;23.20;42.20;;;;;;20742;6834;120081;-70
2023/08/03 08:41:14;;;;;;;3.05;0.80;;;23.30;43.00;;;;;;20743;6834;117573;-71
2023/08/03 08:43:41;;;;;;;2.27;0.90;;;23.10;43.30;;;;;;20530;6834;282122;-71
2023/08/03 08:46:05;;;;;;;2.90;0.80;;;23.30;41.60;;;;;;20744;6834;117099;-71
2023/08/03 08:48:32;;;;;;;3.20;0.98;;;23.40;41.80;;;;;;20519;6834;285208;-70
2023/08/03 08:50:57;;;;;;;3.03;0.80;;;23.40;42.00;;;;;;20530;6834;277478;-69
2023/08/03 08:53:23;;;;;;;2.00;0.90;;;23.60;42.30;;;;;;20717;6839;118141;-70
2023/08/03 08:55:49;;;;;;;0.87;0.70;;;23.60;41.70;;;;;;20691;6854;117608;-71
2023/08/03 08:58:15;;;;;;;1.20;0.60;;;23.50;42.60;;;;;;20720;6839;117171;-71
2023/08/03 09:00:40;;;;;;;18.55;2.30;;;23.40;43.40;;;;;;20498;6839;308232;-71
2023/08/03 09:03:06;;;;;;;1.30;0.60;;;23.70;42.20;;;;;;20715;6839;120021;-70
2023/08/03 09:05:33;;;;;;;6.03;1.20;;;24.00;43.00;;;;;;20683;6854;117273;-72
2023/08/03 09:08:04;;;;;;;2.67;1.12;;;24.20;43.60;;;;;;20514;6839;277729;-72
2023/08/03 09:10:29;;;;;;;2.22;0.90;;;24.70;41.60;;;;;;20486;6839;337510;-71
2023/08/03 09:12:55;;;;;;;2.20;0.70;;;25.20;40.10;;;;;;20524;6839;308108;-72
2023/08/03 09:15:37;;;;;;;2.07;0.90;;;25.60;39.40;;;;;;20475;6854;282578;-70
2023/08/03 09:18:02;;;;;;;9.63;1.40;;;25.90;38.60;;;;;;20704;6839;117257;-71
2023/08/03 09:20:31;;;;;;;2.53;1.00;;;25.60;39.70;;;;;;20687;6839;123566;-71
2023/08/03 09:22:56;;;;;;;4.80;0.97;;;24.70;41.10;;;;;;20718;6839;122509;-71
2023/08/03 09:25:22;;;;;;;2.03;0.80;;;24.30;41.60;;;;;;20728;6838;117543;-71
2023/08/03 09:27:48;;;;;;;3.30;0.83;;;24.30;41.60;;;;;;20522;6839;307654;-71
2023/08/03 09:30:13;;;;;;;2.90;1.07;;;24.30;41.30;;;;;;20447;6854;338872;-70
2023/08/03 09:32:39;;;;;;;2.20;0.87;;;24.50;40.60;;;;;;20713;6839;119322;-71
2023/08/03 09:35:14;;;;;;;4.57;0.90;;;24.00;42.20;;;;;;20736;6839;117686;-71
2023/08/03 09:37:40;;;;;;;2.63;0.80;;;24.00;42.10;;;;;;20453;6854;323841;-71
2023/08/03 09:40:07;;;;;;;2.58;1.10;;;24.00;40.80;;;;;;20520;6839;336824;-71
2023/08/03 09:42:32;;;;;;;2.83;1.00;;;24.20;40.80;;;;;;20696;6839;118788;-72
2023/08/03 09:45:04;;;;;;;3.83;0.67;;;24.00;41.60;;;;;;20685;6854;124284;-71
2023/08/03 09:47:30;;;;;;;1.43;0.63;;;23.80;41.30;;;;;;20511;6839;307354;-72
2023/08/03 09:49:56;;;;;;;0.93;0.53;;;23.80;41.30;;;;;;20721;6839;117177;-72
2023/08/03 09:52:21;;;;;;;1.52;0.82;;;23.70;41.90;;;;;;20529;6834;307228;-71
2023/08/03 09:54:55;;;;;;;1.55;0.73;;;23.70;40.70;;;;;;20489;6839;302370;-71
2023/08/03 09:57:16;;;;;;;1.65;0.88;;;23.90;40.60;;;;;;20423;6854;343100;-71
2023/08/03 09:59:42;;;;;;;1.90;0.80;;;24.00;41.70;;;;;;20682;6854;121241;-71
2023/08/03 10:02:07;;;;;;;3.00;0.73;;;24.00;41.60;;;;;;20716;6839;119240;-72
2023/08/03 10:04:34;;;;;;;3.83;0.80;;;23.80;42.40;;;;;;20706;6839;125726;-72
2023/08/03 10:07:00;;;;;;;12.93;6.57;;;23.60;42.90;;;;;;20511;6835;311406;-72
2023/08/03 10:09:25;;;;;;;2.50;1.83;;;23.70;42.10;;;;;;20508;6839;307684;-74
2023/08/03 10:11:52;;;;;;;4.03;3.17;;;24.00;41.80;;;;;;20743;6835;123013;-74
2023/08/03 10:14:17;;;;;;;2.50;1.00;;;24.10;42.50;;;;;;20515;6839;298262;-74
2023/08/03 10:16:44;;;;;;;5.07;0.90;;;24.20;41.80;;;;;;20715;6835;117173;-74
2023/08/03 10:19:09;;;;;;;1.37;0.80;;;24.40;40.50;;;;;;20536;6835;309708;-74
2023/08/03 10:21:35;;;;;;;2.07;0.80;;;24.40;40.50;;;;;;20675;6854;119969;-75
2023/08/03 10:24:07;;;;;;;2.12;0.75;;;24.30;41.40;;;;;;20514;6839;336886;-73
2023/08/03 10:26:32;;;;;;;1.93;0.60;;;24.40;40.70;;;;;;20709;6839;123003;-72
2023/08/03 10:28:58;;;;;;;3.00;0.97;;;24.40;41.40;;;;;;20519;6839;282757;-73
2023/08/03 10:31:23;;;;;;;1.30;0.62;;;24.40;40.70;;;;;;20513;6839;307795;-72
2023/08/03 10:33:49;;;;;;;0.82;0.55;;;24.60;40.00;;;;;;20746;6835;119192;-73
2023/08/03 10:36:31;;;;;;;1.40;0.80;;;24.50;41.70;;;;;;20514;6838;309318;-72
2023/08/03 10:39:04;;;;;;;1.90;0.80;;;24.70;39.80;;;;;;20472;6853;307858;-72
2023/08/03 10:41:36;;;;;;;1.60;0.60;;;24.70;39.80;;;;;;20522;6839;314387;-72
2023/08/03 10:44:09;;;;;;;1.33;0.80;;;24.90;39.90;;;;;;20701;6839;119034;-73
2023/08/03 10:46:41;;;;;;;1.67;0.80;;;24.80;40.40;;;;;;20369;6854;289263;-72
2023/08/03 10:49:17;;;;;;;2.47;0.70;;;24.80;40.40;;;;;;20507;6839;277830;-72
2023/08/03 10:51:43;;;;;;;1.90;0.80;;;24.90;40.50;;;;;;20408;6854;279195;-72
2023/08/03 10:54:08;;;;;;;1.50;0.50;;;25.10;40.30;;;;;;20651;6839;121718;-73
2023/08/03 10:56:34;;;;;;;3.90;0.57;;;24.90;41.20;;;;;;20695;6839;119642;-73
2023/08/03 10:59:00;;;;;;;0.90;0.60;;;24.60;41.70;;;;;;20720;6839;119915;-73
2023/08/03 11:01:27;;;;;;;2.27;0.87;;;24.40;42.10;;;;;;20500;6839;278388;-73
2023/08/03 11:03:53;;;;;;;4.43;0.60;;;24.60;41.10;;;;;;20679;6854;119838;-72
2023/08/03 11:06:18;;;;;;;1.87;0.70;;;24.60;41.50;;;;;;20513;6839;307367;-73
2023/08/03 11:08:45;;;;;;;1.67;0.80;;;24.70;40.10;;;;;;20727;6834;119967;-73
2023/08/03 11:11:13;;;;;;;1.33;0.67;;;24.60;41.00;;;;;;20739;6839;117134;-73
2023/08/03 11:13:36;;;;;;;1.27;0.70;;;24.30;41.70;;;;;;20729;6834;117632;-72
2023/08/03 11:16:03;;;;;;;1.98;0.80;;;24.00;40.80;;;;;;20535;6839;307733;-73
2023/08/03 11:18:29;;;;;;;2.00;0.93;;;24.00;40.70;;;;;;20520;6835;310601;-72
2023/08/03 11:20:54;;;;;;;1.40;0.80;;;24.20;40.70;;;;;;20767;6835;116288;-73
2023/08/03 11:23:21;;;;;;;1.30;0.70;;;23.90;42.60;;;;;;20759;6835;117030;-73
2023/08/03 11:25:46;;;;;;;1.05;0.75;;;23.90;42.10;;;;;;20522;6839;280656;-73
2023/08/03 11:28:22;;;;;;;1.17;0.80;;;24.00;40.70;;;;;;20540;6835;306243;-73
2023/08/03 11:30:48;;;;;;;1.20;0.40;;;24.50;42.10;;;;;;20732;6835;122941;-73
2023/08/03 11:33:14;;;;;;;3.27;0.90;;;24.50;42.10;;;;;;20540;6835;307134;-74
2023/08/03 11:35:39;;;;;;;2.17;0.90;;;24.80;41.10;;;;;;20532;6835;335825;-74
2023/08/03 11:38:05;;;;;;;1.85;0.50;;;25.20;40.80;;;;;;20756;6835;117131;-71
2023/08/03 11:40:30;;;;;;;1.43;0.63;;;25.20;40.90;;;;;;20729;6835;120731;-72
2023/08/03 11:42:56;;;;;;;1.00;0.53;;;25.00;41.30;;;;;;20735;6839;118013;-71
2023/08/03 11:45:22;;;;;;;2.05;0.70;;;24.80;41.60;;;;;;20518;6839;307737;-71
2023/08/03 11:47:47;;;;;;;1.63;0.57;;;24.90;40.00;;;;;;20728;6838;121076;-71
2023/08/03 11:50:14;;;;;;;1.47;0.60;;;24.70;41.50;;;;;;20744;6834;117006;-70
2023/08/03 11:52:39;;;;;;;1.67;0.87;;;24.60;40.90;;;;;;20492;6839;303807;-73
2023/08/03 11:55:05;;;;;;;4.13;0.83;;;24.80;40.00;;;;;;20539;6834;277872;-71
2023/08/03 12:00:16;;;;;;;0.77;0.47;;;25.40;39.40;;;;;;20728;6839;120436;-72
2023/08/03 12:02:42;;;;;;;1.47;0.50;;;25.40;40.50;;;;;;20720;6839;117085;-72
2023/08/03 12:05:07;;;;;;;0.77;0.68;;;25.20;41.00;;;;;;20524;6839;307208;-72
2023/08/03 12:07:33;;;;;;;2.10;0.77;;;25.30;39.40;;;;;;20695;6854;123113;-72
2023/08/03 12:10:01;;;;;;;1.33;0.73;;;25.30;40.20;;;;;;20521;6839;296151;-73
2023/08/03 12:12:26;;;;;;;2.27;0.73;;;25.30;39.50;;;;;;20499;6839;307759;-71
2023/08/03 12:14:52;;;;;;;1.40;0.60;;;25.60;39.10;;;;;;20732;6839;119622;-74
2023/08/03 12:17:17;;;;;;;3.25;0.90;;;25.60;39.90;;;;;;20524;6839;311885;-74
2023/08/03 12:19:44;;;;;;;1.55;0.77;;;25.60;39.10;;;;;;20539;6834;336223;-74
2023/08/03 12:22:11;;;;;;;1.27;0.80;;;25.80;38.60;;;;;;20527;6839;316334;-73
2023/08/03 12:24:36;;;;;;;3.07;0.40;;;26.00;38.40;;;;;;20707;6839;147941;-72
2023/08/03 12:27:01;;;;;;;3.90;0.93;;;25.80;39.10;;;;;;20485;6854;278799;-72
2023/08/03 12:29:27;;;;;;;1.67;0.90;;;25.70;39.00;;;;;;20513;6839;306888;-72
2023/08/03 12:31:52;;;;;;;1.47;0.80;;;25.80;38.20;;;;;;20476;6854;308344;-72